Terminal Aerodrome Forecast
Issued by NWS Sterling, VA

Home | Current Version | Previous Version | Text Only | Print | Product List | Glossary On
Versions: 1 2 3 4 5 6 7 8 9 10 11 12 13 14 15 16 17 18 19 20 21 22
000
FTUS41 KLWX 231120
TAFCHO
TAF
KCHO 231120Z 2312/2412 03006KT P6SM BKN060
     FM231500 04007KT P6SM -RA BKN060
     FM232200 04004KT P6SM -RA OVC030
     FM240000 VRB03KT 6SM -RA OVC015
     FM240600 03006KT 4SM RA OVC003
     FM240800 03007KT 5SM RA OVC008
     FM240900 03008KT 4SM RA OVC003
     FM241000 03008KT 4SM RA OVC008=

USA.gov is the U.S. government's official web portal to all federal, state and local government web resources and services.